createdAt,value
2023-09-13T00:01:14.184Z,13.07
2023-09-13T00:03:22.203Z,15.63
2023-09-13T00:05:31.511Z,14.47
2023-09-13T00:07:40.304Z,10.77
2023-09-13T00:09:50.473Z,12.63
2023-09-13T00:11:59.172Z,13.30
2023-09-13T00:14:08.289Z,12.67
2023-09-13T00:16:17.063Z,13.90
2023-09-13T00:18:25.854Z,11.33
2023-09-13T00:20:34.506Z,16.40
2023-09-13T00:22:43.966Z,15.33
2023-09-13T00:24:54.410Z,15.97
2023-09-13T00:27:03.270Z,11.43
2023-09-13T00:29:11.873Z,15.00
2023-09-13T00:31:20.709Z,13.70
2023-09-13T00:33:31.026Z,12.93
2023-09-13T00:35:40.012Z,11.70
2023-09-13T00:37:49.533Z,14.43
2023-09-13T00:40:00.511Z,11.27
2023-09-13T00:42:09.502Z,11.20
2023-09-13T00:44:18.372Z,12.97
2023-09-13T00:46:27.108Z,13.03
2023-09-13T00:48:36.569Z,12.07
2023-09-13T00:50:53.333Z,11.07
2023-09-13T00:53:02.654Z,10.40
2023-09-13T00:55:14.970Z,8.70
2023-09-13T00:57:25.311Z,14.27
2023-09-13T00:59:34.328Z,8.97
2023-09-13T01:01:43.366Z,10.13
2023-09-13T01:03:52.642Z,13.30
2023-09-13T01:06:02.260Z,12.50
2023-09-13T01:08:11.090Z,9.23
2023-09-13T01:10:21.818Z,12.77
2023-09-13T01:12:30.925Z,9.90
2023-09-13T01:14:39.616Z,12.13
2023-09-13T01:16:54.657Z,10.43
2023-09-13T01:19:10.155Z,11.27
2023-09-13T01:21:33.996Z,10.23
2023-09-13T01:23:55.676Z,11.13
2023-09-13T01:26:28.426Z,11.07
2023-09-13T01:28:42.363Z,12.10
2023-09-13T01:30:52.563Z,11.03
2023-09-13T01:33:01.579Z,11.70
2023-09-13T01:35:10.762Z,13.57
2023-09-13T01:37:19.393Z,11.37
2023-09-13T01:39:28.181Z,13.90
2023-09-13T01:41:39.874Z,12.47
2023-09-13T01:43:51.977Z,12.40
2023-09-13T01:46:01.521Z,10.33
2023-09-13T01:48:11.213Z,11.27
2023-09-13T01:50:20.142Z,13.07
2023-09-13T01:52:29.156Z,11.83
2023-09-13T01:54:38.894Z,13.67
2023-09-13T01:56:46.568Z,12.63
2023-09-13T01:58:56.937Z,11.43
2023-09-13T02:01:05.663Z,11.13
2023-09-13T02:03:14.584Z,11.87
2023-09-13T02:05:23.660Z,12.03
2023-09-13T02:07:32.392Z,11.53
2023-09-13T02:09:41.544Z,11.03
2023-09-13T02:11:50.192Z,10.63
2023-09-13T02:14:03.026Z,11.00
2023-09-13T02:16:12.965Z,9.60
2023-09-13T02:18:21.982Z,9.63
2023-09-13T02:20:31.003Z,11.07
2023-09-13T02:22:39.966Z,12.10
2023-09-13T02:24:48.879Z,11.77
2023-09-13T02:26:58.357Z,13.67
2023-09-13T02:29:09.425Z,10.40
2023-09-13T02:31:23.912Z,10.47
2023-09-13T02:33:32.558Z,9.60
2023-09-13T02:35:41.177Z,10.87
2023-09-13T02:37:50.467Z,9.17
2023-09-13T02:40:00.026Z,11.33
2023-09-13T02:42:09.895Z,11.30
2023-09-13T02:44:20.567Z,9.87
2023-09-13T02:46:29.442Z,14.00
2023-09-13T02:48:39.279Z,11.17
2023-09-13T02:50:48.187Z,10.60
2023-09-13T02:52:57.110Z,13.30
2023-09-13T02:55:07.239Z,11.73
2023-09-13T02:57:15.928Z,10.50
2023-09-13T02:59:25.979Z,12.50
2023-09-13T03:01:35.062Z,11.50
2023-09-13T03:03:44.915Z,12.47
2023-09-13T03:05:53.992Z,11.47
2023-09-13T03:08:02.646Z,9.27
2023-09-13T03:10:12.290Z,11.80
2023-09-13T03:12:21.026Z,12.47
2023-09-13T03:14:31.725Z,9.57
2023-09-13T03:16:40.659Z,11.33
2023-09-13T03:18:51.063Z,10.80
2023-09-13T03:21:00.021Z,10.60
2023-09-13T03:23:09.005Z,9.30
2023-09-13T03:25:17.873Z,10.07
2023-09-13T03:27:26.531Z,8.77
2023-09-13T03:29:37.709Z,10.60
2023-09-13T03:31:46.588Z,9.50
2023-09-13T03:33:56.339Z,9.03
2023-09-13T03:36:04.296Z,7.30
2023-09-13T03:38:13.122Z,12.37
2023-09-13T03:40:21.982Z,8.47
2023-09-13T03:42:30.906Z,7.70
2023-09-13T03:44:41.461Z,7.83
2023-09-13T03:46:50.197Z,7.40
2023-09-13T03:48:59.243Z,9.40
2023-09-13T03:51:08.865Z,9.37
2023-09-13T03:53:17.933Z,6.63
2023-09-13T03:55:26.553Z,9.57
2023-09-13T03:57:35.330Z,6.97
2023-09-13T03:59:45.635Z,8.80
2023-09-13T04:01:55.842Z,6.23
2023-09-13T04:04:07.100Z,9.37
2023-09-13T04:06:16.091Z,6.93
2023-09-13T04:08:24.967Z,7.77
2023-09-13T04:10:33.926Z,5.80
2023-09-13T04:12:42.710Z,6.33
2023-09-13T04:14:53.621Z,6.27
2023-09-13T04:17:02.529Z,6.30
2023-09-13T04:19:11.528Z,4.80
2023-09-13T04:21:20.731Z,6.80
2023-09-13T04:23:30.237Z,7.73
2023-09-13T04:25:39.357Z,4.30
2023-09-13T04:27:48.636Z,5.30
2023-09-13T04:29:59.053Z,3.67
2023-09-13T04:32:07.953Z,4.77
2023-09-13T04:34:16.658Z,5.27
2023-09-13T04:36:25.874Z,5.77
2023-09-13T04:38:34.468Z,5.17
2023-09-13T04:40:44.505Z,4.20
2023-09-13T04:42:54.538Z,4.07
2023-09-13T04:45:05.915Z,4.17
2023-09-13T04:47:14.565Z,3.83
2023-09-13T04:49:23.218Z,5.90
2023-09-13T04:51:32.015Z,4.20
2023-09-13T04:53:41.004Z,3.40
2023-09-13T04:55:50.107Z,4.07
2023-09-13T04:57:59.249Z,5.87
2023-09-13T05:00:12.655Z,6.00
2023-09-13T05:02:22.649Z,5.17
2023-09-13T05:04:31.889Z,5.87
2023-09-13T05:06:40.686Z,4.37
2023-09-13T05:08:50.027Z,4.80
2023-09-13T05:10:59.262Z,3.67
2023-09-13T05:13:07.219Z,6.03
2023-09-13T05:15:17.915Z,3.50
2023-09-13T05:17:26.707Z,3.60
2023-09-13T05:19:35.427Z,4.37
2023-09-13T05:21:44.279Z,4.07
2023-09-13T05:23:53.143Z,5.00
2023-09-13T05:26:02.411Z,3.17
2023-09-13T05:28:11.532Z,4.10
2023-09-13T05:30:28.153Z,4.30
2023-09-13T05:32:36.981Z,2.83
2023-09-13T05:34:45.957Z,5.17
2023-09-13T05:36:55.007Z,3.20
2023-09-13T05:39:04.602Z,4.33
2023-09-13T05:41:14.022Z,3.63
2023-09-13T05:43:23.166Z,5.20
2023-09-13T05:45:33.872Z,3.20
2023-09-13T05:47:42.687Z,3.93
2023-09-13T05:49:51.470Z,3.97
2023-09-13T05:52:00.260Z,4.03
2023-09-13T05:54:09.309Z,5.77
2023-09-13T05:56:17.975Z,3.07
2023-09-13T05:58:27.177Z,5.27
2023-09-13T06:00:37.661Z,2.70
2023-09-13T06:02:47.194Z,5.00
2023-09-13T06:04:56.003Z,3.00
2023-09-13T06:07:05.116Z,5.07
2023-09-13T06:09:13.772Z,3.07
2023-09-13T06:11:22.754Z,2.43
2023-09-13T06:13:31.891Z,3.83
2023-09-13T06:15:42.590Z,3.63
2023-09-13T06:17:52.945Z,2.30
2023-09-13T06:20:01.733Z,2.00
2023-09-13T06:22:11.105Z,3.03
2023-09-13T06:24:19.681Z,2.53
2023-09-13T06:26:28.581Z,2.97
2023-09-13T06:28:37.535Z,2.63
2023-09-13T06:31:01.242Z,3.80
2023-09-13T06:33:13.034Z,1.93
2023-09-13T06:35:22.970Z,1.63
2023-09-13T06:37:32.710Z,3.20
2023-09-13T06:39:42.119Z,2.00
2023-09-13T06:41:51.571Z,1.60
2023-09-13T06:44:09.146Z,1.70
2023-09-13T06:46:20.565Z,1.70
2023-09-13T06:48:29.502Z,1.87
2023-09-13T06:51:11.371Z,1.43
2023-09-13T06:53:22.661Z,1.60
2023-09-13T06:55:38.357Z,1.60
2023-09-13T06:57:53.067Z,1.33
2023-09-13T07:00:06.792Z,2.13
2023-09-13T07:02:31.104Z,1.60
2023-09-13T07:04:46.265Z,1.57
2023-09-13T07:07:13.227Z,1.77
2023-09-13T07:09:22.661Z,1.83
2023-09-13T07:11:31.610Z,2.73
2023-09-13T07:13:39.735Z,3.30
2023-09-13T07:15:50.152Z,1.53
2023-09-13T07:18:01.272Z,1.10
2023-09-13T07:20:12.056Z,1.33
2023-09-13T07:22:20.706Z,1.40
2023-09-13T07:24:29.674Z,1.30
2023-09-13T07:26:38.386Z,2.27
2023-09-13T07:28:47.547Z,2.03
2023-09-13T07:30:56.658Z,2.10
2023-09-13T07:33:08.097Z,1.43
2023-09-13T07:35:16.843Z,4.70
2023-09-13T07:37:27.782Z,2.20
2023-09-13T07:39:37.911Z,1.27
2023-09-13T07:41:47.020Z,1.93
2023-09-13T07:43:55.884Z,2.07
2023-09-13T07:46:05.665Z,1.83
2023-09-13T07:48:16.139Z,1.27
2023-09-13T07:50:31.593Z,1.30
2023-09-13T07:53:00.828Z,4.60
2023-09-13T07:55:09.443Z,1.10
2023-09-13T07:57:18.550Z,1.40
2023-09-13T07:59:27.433Z,1.23
2023-09-13T08:01:36.610Z,1.50
2023-09-13T08:03:47.383Z,1.80
2023-09-13T08:05:58.601Z,3.03
2023-09-13T08:08:08.613Z,2.43
2023-09-13T08:10:17.563Z,1.47
2023-09-13T08:12:26.301Z,1.27
2023-09-13T08:14:35.586Z,1.77
2023-09-13T08:16:44.308Z,2.27
2023-09-13T08:18:55.289Z,1.50
2023-09-13T08:21:05.523Z,1.50
2023-09-13T08:23:14.334Z,1.40
2023-09-13T08:25:23.675Z,1.60
2023-09-13T08:27:32.648Z,2.87
2023-09-13T08:29:41.829Z,2.13
2023-09-13T08:31:50.520Z,1.73
2023-09-13T08:33:59.740Z,1.53
2023-09-13T08:36:08.750Z,1.70
2023-09-13T08:38:17.381Z,2.43
2023-09-13T08:40:26.320Z,1.43
2023-09-13T08:42:35.090Z,1.53
2023-09-13T08:44:45.387Z,1.53
2023-09-13T08:46:56.664Z,1.90
2023-09-13T08:49:07.685Z,1.63
2023-09-13T08:51:17.207Z,1.50
2023-09-13T08:53:25.935Z,2.43
2023-09-13T08:55:35.609Z,2.97
2023-09-13T08:57:44.804Z,2.13
2023-09-13T08:59:53.528Z,1.50
2023-09-13T09:02:03.800Z,2.97
2023-09-13T09:04:15.608Z,2.40
2023-09-13T09:06:24.977Z,1.50
2023-09-13T09:08:33.829Z,1.50
2023-09-13T09:10:45.062Z,1.70
2023-09-13T09:12:55.120Z,1.50
2023-09-13T09:15:03.842Z,1.60
2023-09-13T09:17:13.442Z,1.50
2023-09-13T09:19:24.024Z,1.90
2023-09-13T09:21:33.186Z,1.93
2023-09-13T09:23:42.952Z,1.40
2023-09-13T09:25:52.501Z,1.30
2023-09-13T09:28:03.823Z,1.50
2023-09-13T09:30:16.583Z,3.37
2023-09-13T09:32:25.647Z,1.40
2023-09-13T09:34:37.030Z,2.13
2023-09-13T09:36:48.262Z,2.10
2023-09-13T09:38:57.069Z,2.17
2023-09-13T09:41:08.177Z,1.40
2023-09-13T09:43:17.343Z,2.50
2023-09-13T09:45:27.059Z,1.77
2023-09-13T09:47:39.915Z,1.80
2023-09-13T09:49:51.314Z,1.67
2023-09-13T09:52:00.346Z,2.20
2023-09-13T09:54:09.124Z,1.50
2023-09-13T09:56:18.990Z,1.23
2023-09-13T09:58:27.864Z,1.37
2023-09-13T10:00:44.934Z,1.90
2023-09-13T10:02:54.179Z,2.00
2023-09-13T10:05:07.131Z,2.40
2023-09-13T10:07:15.721Z,1.87
2023-09-13T10:09:24.809Z,1.90
2023-09-13T10:11:33.886Z,1.50
2023-09-13T10:13:43.993Z,1.67
2023-09-13T10:15:52.801Z,2.77
2023-09-13T10:18:04.514Z,1.13
2023-09-13T10:20:16.341Z,4.70
2023-09-13T10:22:30.037Z,1.33
2023-09-13T10:24:41.906Z,1.80
2023-09-13T10:26:54.203Z,1.13
2023-09-13T10:29:07.356Z,1.50
2023-09-13T10:31:19.503Z,1.70
2023-09-13T10:33:29.426Z,2.20
2023-09-13T10:35:43.111Z,1.30
2023-09-13T10:37:54.057Z,1.47
2023-09-13T10:40:11.720Z,1.53
2023-09-13T10:42:20.910Z,1.40
2023-09-13T10:44:29.748Z,1.53
2023-09-13T10:46:38.957Z,1.30
2023-09-13T10:48:47.922Z,2.40
2023-09-13T10:50:58.944Z,2.60
2023-09-13T10:53:07.828Z,1.50
2023-09-13T10:55:16.991Z,1.20
2023-09-13T10:57:26.820Z,1.40
2023-09-13T10:59:38.125Z,2.43
2023-09-13T11:01:47.733Z,2.70
2023-09-13T11:03:56.920Z,5.10
2023-09-13T11:06:07.926Z,3.10
2023-09-13T11:08:28.999Z,2.20
2023-09-13T11:10:37.904Z,1.40
2023-09-13T11:12:50.771Z,1.90
2023-09-13T11:15:00.080Z,1.40
2023-09-13T11:17:13.121Z,1.97
2023-09-13T11:19:28.282Z,2.50
2023-09-13T11:21:51.292Z,1.30
2023-09-13T11:24:04.612Z,1.77
2023-09-13T11:26:27.319Z,2.87
2023-09-13T11:28:46.717Z,1.00
2023-09-13T11:30:55.757Z,1.40
2023-09-13T11:33:05.176Z,2.13
2023-09-13T11:35:15.201Z,0.90
2023-09-13T11:37:26.517Z,1.57
2023-09-13T11:39:35.623Z,1.47
2023-09-13T11:41:54.431Z,1.50
2023-09-13T11:44:04.567Z,2.40
2023-09-13T11:46:14.725Z,1.00
2023-09-13T11:48:24.978Z,2.13
2023-09-13T11:50:48.788Z,2.50
2023-09-13T11:53:11.713Z,1.20
2023-09-13T11:55:37.595Z,3.63
2023-09-13T11:57:58.907Z,1.10
2023-09-13T12:00:19.051Z,4.47
2023-09-13T12:02:29.830Z,2.63
2023-09-13T12:06:58.294Z,2.07
2023-09-13T12:09:18.603Z,1.93
2023-09-13T12:11:28.919Z,1.40
2023-09-13T12:18:09.321Z,1.23
2023-09-13T12:20:18.433Z,1.30
2023-09-13T12:22:27.145Z,1.37
2023-09-13T12:24:37.626Z,2.23
2023-09-13T12:26:46.459Z,1.10
2023-09-13T12:28:56.810Z,1.53
2023-09-13T12:31:12.812Z,1.70
2023-09-13T12:33:21.792Z,1.80
2023-09-13T12:35:31.086Z,2.37
2023-09-13T12:37:40.215Z,1.73
2023-09-13T12:39:50.605Z,2.70
2023-09-13T12:41:59.464Z,1.50
2023-09-13T12:44:08.639Z,1.27
2023-09-13T12:46:17.922Z,3.17
2023-09-13T12:48:27.820Z,2.27
2023-09-13T12:50:37.618Z,1.90
2023-09-13T12:52:47.775Z,1.57
2023-09-13T12:54:59.148Z,3.63
2023-09-13T12:57:08.151Z,2.13
2023-09-13T12:59:17.086Z,1.57
2023-09-13T13:01:26.865Z,2.80
2023-09-13T13:03:36.413Z,3.47
2023-09-13T13:05:46.847Z,2.83
2023-09-13T13:10:10.310Z,1.60
2023-09-13T13:12:19.929Z,3.30
2023-09-13T13:14:30.846Z,1.80
2023-09-13T13:16:45.235Z,3.30
2023-09-13T13:18:56.972Z,1.90
2023-09-13T13:21:09.013Z,1.30
2023-09-13T13:23:18.611Z,3.23
2023-09-13T13:25:29.519Z,2.37
2023-09-13T13:27:38.460Z,1.77
2023-09-13T13:29:47.388Z,2.27
2023-09-13T13:31:56.365Z,3.33
2023-09-13T13:34:06.969Z,2.20
2023-09-13T13:36:16.155Z,2.63
2023-09-13T13:38:25.320Z,1.57
2023-09-13T13:40:38.078Z,2.93
2023-09-13T13:42:46.965Z,1.43
2023-09-13T13:44:56.010Z,2.80
2023-09-13T13:47:05.184Z,1.30
2023-09-13T13:49:17.992Z,1.53
2023-09-13T13:51:29.246Z,3.27
2023-09-13T13:53:38.410Z,2.73
2023-09-13T13:55:49.425Z,3.57
2023-09-13T13:57:58.590Z,3.50
2023-09-13T14:00:09.061Z,1.33
2023-09-13T14:02:18.129Z,2.23
2023-09-13T14:04:27.292Z,4.37
2023-09-13T14:06:36.185Z,2.97
2023-09-13T14:08:45.029Z,3.90
2023-09-13T14:10:56.114Z,2.03
2023-09-13T14:13:04.142Z,3.17
2023-09-13T14:15:13.392Z,3.90
2023-09-13T14:17:22.305Z,3.10
2023-09-13T14:19:33.439Z,4.87
2023-09-13T14:21:43.897Z,3.27
2023-09-13T14:23:52.779Z,2.60
2023-09-13T14:26:03.355Z,4.37
2023-09-13T14:28:13.623Z,4.07
2023-09-13T14:30:22.794Z,2.00
2023-09-13T14:32:31.695Z,3.67
2023-09-13T14:34:43.653Z,3.37
2023-09-13T14:36:52.790Z,2.80
2023-09-13T14:39:02.093Z,4.03
2023-09-13T14:41:12.223Z,4.53
2023-09-13T14:43:21.440Z,2.30
2023-09-13T14:45:30.172Z,2.77
2023-09-13T14:47:39.214Z,3.83
2023-09-13T14:49:48.031Z,3.63
2023-09-13T14:51:56.814Z,3.00
2023-09-13T14:54:05.408Z,2.17
2023-09-13T14:56:15.886Z,2.77
2023-09-13T14:58:24.113Z,3.93
2023-09-13T15:00:33.021Z,5.27
2023-09-13T15:02:43.709Z,3.00
2023-09-13T15:04:52.843Z,1.80
2023-09-13T15:07:01.680Z,4.33
2023-09-13T15:09:11.698Z,2.93
2023-09-13T15:11:21.978Z,3.90
2023-09-13T15:13:31.018Z,2.00
2023-09-13T15:15:41.291Z,6.90
2023-09-13T15:17:50.536Z,2.67
2023-09-13T15:19:59.683Z,4.57
2023-09-13T15:22:08.595Z,2.20
2023-09-13T15:24:17.913Z,2.70
2023-09-13T15:26:28.362Z,4.63
2023-09-13T15:28:37.287Z,3.00
2023-09-13T15:30:46.019Z,4.23
2023-09-13T15:32:54.830Z,2.93
2023-09-13T15:35:03.806Z,2.10
2023-09-13T15:37:12.606Z,2.83
2023-09-13T15:39:21.489Z,2.33
2023-09-13T15:41:32.490Z,3.07
2023-09-13T15:43:41.626Z,3.07
2023-09-13T15:45:50.877Z,4.47
2023-09-13T15:48:01.343Z,3.27
2023-09-13T15:50:10.683Z,3.50
2023-09-13T15:52:19.433Z,5.77
2023-09-13T15:54:28.471Z,2.27
2023-09-13T15:56:38.684Z,1.77
2023-09-13T15:58:47.886Z,2.70
2023-09-13T16:00:57.908Z,2.43
2023-09-13T16:03:07.286Z,2.17
2023-09-13T16:05:16.083Z,2.67
2023-09-13T16:07:24.722Z,3.17
2023-09-13T16:09:34.103Z,4.40
2023-09-13T16:11:45.056Z,3.80
2023-09-13T16:13:53.779Z,3.53
2023-09-13T16:16:02.801Z,2.87
2023-09-13T16:18:11.926Z,2.33
2023-09-13T16:20:20.546Z,3.30
2023-09-13T16:22:29.565Z,1.73
2023-09-13T16:24:38.434Z,3.27
2023-09-13T16:26:48.935Z,3.57
2023-09-13T16:28:57.616Z,2.77
2023-09-13T16:31:06.599Z,3.87
2023-09-13T16:33:15.865Z,3.57
2023-09-13T16:35:26.212Z,2.87
2023-09-13T16:37:35.073Z,2.83
2023-09-13T16:39:43.688Z,4.07
2023-09-13T16:41:56.443Z,3.90
2023-09-13T16:44:05.539Z,5.93
2023-09-13T16:46:14.450Z,5.00
2023-09-13T16:48:33.832Z,4.03
2023-09-13T16:50:43.888Z,7.13
2023-09-13T16:52:52.509Z,5.70
2023-09-13T16:55:01.477Z,6.53
2023-09-13T16:57:11.967Z,5.57
2023-09-13T16:59:21.484Z,3.77
2023-09-13T17:01:30.372Z,2.80
2023-09-13T17:03:40.834Z,3.53
2023-09-13T17:05:49.737Z,5.37
2023-09-13T17:07:59.051Z,3.47
2023-09-13T17:10:08.610Z,2.63
2023-09-13T17:12:21.348Z,3.47
2023-09-13T17:14:30.737Z,3.00
2023-09-13T17:16:39.581Z,2.30
2023-09-13T17:18:49.722Z,2.90
2023-09-13T17:20:58.742Z,2.27
2023-09-13T17:23:07.598Z,1.97
2023-09-13T17:25:16.898Z,4.27
2023-09-13T17:27:28.278Z,1.90
2023-09-13T17:29:37.737Z,2.57
2023-09-13T17:31:48.759Z,2.80
2023-09-13T17:33:59.023Z,3.60
2023-09-13T17:36:08.876Z,3.47
2023-09-13T17:38:18.754Z,4.57
2023-09-13T17:40:28.930Z,4.03
2023-09-13T17:42:40.234Z,3.80
2023-09-13T17:44:52.370Z,2.30
2023-09-13T17:47:02.265Z,2.20
2023-09-13T17:49:12.276Z,5.93
2023-09-13T17:51:24.963Z,2.10
2023-09-13T17:53:34.172Z,3.37
2023-09-13T17:55:41.863Z,2.37
2023-09-13T17:57:52.994Z,8.50
2023-09-13T18:00:03.552Z,2.03
2023-09-13T18:02:12.785Z,1.73
2023-09-13T18:04:22.520Z,3.70
2023-09-13T18:06:32.266Z,1.97
2023-09-13T18:08:43.381Z,2.13
2023-09-13T18:10:53.525Z,4.03
2023-09-13T18:13:04.065Z,3.67
2023-09-13T18:15:13.110Z,4.33
2023-09-13T18:17:22.133Z,1.53
2023-09-13T18:19:31.108Z,2.30
2023-09-13T18:21:40.227Z,3.20
2023-09-13T18:23:49.101Z,2.13
2023-09-13T18:25:58.028Z,1.53
2023-09-13T18:28:08.912Z,2.17
2023-09-13T18:30:17.626Z,2.57
2023-09-13T18:32:27.145Z,1.40
2023-09-13T18:34:41.527Z,1.50
2023-09-13T18:36:50.209Z,1.67
2023-09-13T18:38:58.980Z,2.63
2023-09-13T18:41:07.639Z,3.60
2023-09-13T18:43:17.721Z,2.57
2023-09-13T18:45:26.719Z,3.60
2023-09-13T18:47:34.515Z,1.90
2023-09-13T18:49:43.492Z,3.23
2023-09-13T18:51:52.751Z,3.57
2023-09-13T18:54:03.152Z,3.97
2023-09-13T18:56:14.327Z,4.10
2023-09-13T18:58:25.516Z,1.77
2023-09-13T19:00:34.946Z,3.83
2023-09-13T19:02:44.049Z,2.63
2023-09-13T19:04:53.688Z,1.87
2023-09-13T19:07:09.307Z,3.73
2023-09-13T19:09:20.028Z,1.60
2023-09-13T19:11:29.293Z,5.57
2023-09-13T19:13:41.185Z,2.40
2023-09-13T19:15:58.884Z,3.33
2023-09-13T19:18:08.458Z,2.80
2023-09-13T19:20:17.757Z,1.40
2023-09-13T19:22:29.629Z,2.37
2023-09-13T19:24:46.639Z,1.87
2023-09-13T19:27:04.266Z,2.17
2023-09-13T19:29:15.015Z,6.60
2023-09-13T19:31:24.969Z,14.03
2023-09-13T19:33:35.207Z,20.30
2023-09-13T19:35:44.385Z,19.90
2023-09-13T19:37:53.102Z,20.33
2023-09-13T19:40:02.578Z,25.23
2023-09-13T19:42:11.302Z,10.63
2023-09-13T19:44:22.129Z,6.00
2023-09-13T19:46:31.151Z,3.73
2023-09-13T19:48:38.916Z,2.03
2023-09-13T19:50:51.641Z,3.77
2023-09-13T19:53:00.664Z,4.20
2023-09-13T19:55:09.859Z,2.93
2023-09-13T19:57:20.210Z,4.80
2023-09-13T19:59:38.563Z,4.43
2023-09-13T20:01:48.218Z,6.97
2023-09-13T20:03:57.041Z,4.77
2023-09-13T20:06:12.816Z,4.87
2023-09-13T20:08:20.530Z,6.77
2023-09-13T20:10:29.655Z,2.00
2023-09-13T20:12:39.037Z,3.63
2023-09-13T20:14:49.638Z,4.23
2023-09-13T20:16:58.323Z,3.47
2023-09-13T20:19:07.378Z,3.07
2023-09-13T20:21:17.133Z,3.20
2023-09-13T20:23:24.759Z,2.03
2023-09-13T20:25:36.515Z,2.00
2023-09-13T20:27:45.444Z,3.50
2023-09-13T20:29:56.325Z,2.83
2023-09-13T20:32:06.480Z,2.40
2023-09-13T20:34:15.559Z,1.40
2023-09-13T20:36:24.424Z,3.20
2023-09-13T20:38:33.429Z,2.90
2023-09-13T20:40:42.233Z,1.53
2023-09-13T20:42:51.326Z,1.83
2023-09-13T20:45:02.087Z,1.20
2023-09-13T20:47:11.105Z,1.57
2023-09-13T20:49:19.615Z,1.13
2023-09-13T20:51:28.433Z,1.57
2023-09-13T20:53:37.328Z,1.07
2023-09-13T20:55:46.306Z,1.60
2023-09-13T20:57:55.759Z,1.30
2023-09-13T21:00:08.130Z,1.83
2023-09-13T21:02:15.681Z,2.10
2023-09-13T21:04:24.373Z,4.77
2023-09-13T21:06:33.125Z,1.73
2023-09-13T21:08:41.964Z,1.10
2023-09-13T21:10:50.918Z,3.10
2023-09-13T21:12:59.868Z,1.30
2023-09-13T21:15:11.639Z,3.03
2023-09-13T21:17:20.707Z,3.90
2023-09-13T21:19:31.212Z,2.10
2023-09-13T21:21:40.295Z,1.80
2023-09-13T21:23:49.234Z,1.87
2023-09-13T21:25:58.002Z,1.50
2023-09-13T21:28:07.365Z,1.53
2023-09-13T21:30:18.733Z,1.13
2023-09-13T21:32:27.890Z,1.73
2023-09-13T21:34:43.858Z,4.03
2023-09-13T21:37:04.271Z,1.33
2023-09-13T21:39:13.778Z,3.13
2023-09-13T21:41:22.657Z,1.07
2023-09-13T21:43:31.916Z,1.67
2023-09-13T21:45:42.339Z,2.27
2023-09-13T21:47:51.265Z,1.60
2023-09-13T21:50:00.172Z,1.03
2023-09-13T21:52:08.901Z,2.00
2023-09-13T21:54:17.703Z,1.10
2023-09-13T21:56:28.079Z,5.23
2023-09-13T21:58:36.961Z,1.23
2023-09-13T22:00:47.560Z,2.50
2023-09-13T22:02:57.008Z,1.57
2023-09-13T22:05:13.338Z,1.00
2023-09-13T22:07:22.341Z,1.10
2023-09-13T22:09:31.960Z,1.30
2023-09-13T22:11:40.716Z,2.13
2023-09-13T22:13:49.534Z,0.97
2023-09-13T22:16:00.069Z,1.53
2023-09-13T22:18:09.178Z,1.83
2023-09-13T22:20:17.865Z,3.73
2023-09-13T22:22:26.952Z,0.90
2023-09-13T22:24:36.111Z,1.27
2023-09-13T22:26:44.895Z,1.47
2023-09-13T22:28:53.898Z,1.43
2023-09-13T22:31:04.055Z,1.27
2023-09-13T22:33:13.079Z,2.17
2023-09-13T22:35:22.270Z,2.40
2023-09-13T22:37:31.166Z,1.50
2023-09-13T22:39:39.993Z,3.27
2023-09-13T22:41:49.474Z,1.10
2023-09-13T22:43:59.707Z,1.30
2023-09-13T22:46:10.888Z,1.97
2023-09-13T22:48:19.782Z,1.27
2023-09-13T22:50:28.742Z,1.97
2023-09-13T22:52:37.858Z,2.73
2023-09-13T22:54:47.070Z,1.73
2023-09-13T22:56:57.454Z,1.03
2023-09-13T22:59:06.585Z,1.10
2023-09-13T23:01:16.908Z,1.97
2023-09-13T23:03:42.179Z,2.60
2023-09-13T23:05:52.377Z,1.63
2023-09-13T23:08:01.286Z,1.40
2023-09-13T23:10:10.503Z,3.53
2023-09-13T23:12:19.653Z,1.40
2023-09-13T23:14:28.553Z,4.10
2023-09-13T23:16:39.138Z,1.43
2023-09-13T23:18:48.676Z,2.33
2023-09-13T23:20:57.664Z,2.17
2023-09-13T23:23:10.310Z,1.70
2023-09-13T23:25:19.505Z,2.80
2023-09-13T23:27:28.237Z,2.13
2023-09-13T23:29:37.428Z,2.57
2023-09-13T23:31:48.196Z,1.10
2023-09-13T23:33:57.448Z,1.83
2023-09-13T23:36:07.054Z,1.53
2023-09-13T23:38:16.029Z,1.90
2023-09-13T23:40:25.114Z,2.23
2023-09-13T23:42:33.887Z,2.47
2023-09-13T23:44:42.635Z,1.97
2023-09-13T23:46:53.075Z,0.80
2023-09-13T23:49:01.724Z,0.80
2023-09-13T23:51:10.861Z,1.03
2023-09-13T23:53:19.651Z,2.03
2023-09-13T23:55:27.424Z,4.40
2023-09-13T23:57:36.378Z,0.80
2023-09-13T23:59:45.346Z,2.40
